Rechercher aéroport 
image banner adimage banner adimage banner ad
image banner ad

CL52 - San Joaquin General Hospital

Situé à Stockton, United States

ICAO - CL52, IATA -

Données fournies par Airmate  

Information générale

Coordonnées: N37°53'16" W121°16'58"
Élévation : 15 feet MSL.
Variation magnétique : 16° East
Voir autres Aéroports à California

Données opérationnelles

Special qualification required
Heure actuelle UTC:
Heure actuelle locale:
Météo à : KSCK - Stockton Metropolitan ( 4 km )
METAR: KSCK 020455Z AUTO 31010KT 10SM CLR 20/12 A3000 RMK AO2 SLP159 T02000117
TAF: KSCK 012335Z 0200/0224 30012KT P6SM SKC FM020700 35004KT P6SM SKC FM022000 32007KT P6SM BKN250
Voir NOTAMs / SUP AIP / TFR affectant cet aéroport [VIEW]
Fréquences de communication: [VIEW]

Pistes:

Coordonnées de l'aéroport

Adresse: Stockton United States

Vue satellite de CL52